sensor_id;sensor_type;location;lat;lon;timestamp;pressure;altitude;pressure_sealevel;temperature;humidity
9672;BME280;4874;43.568;27.824;2023-05-06T00:01:33;98982.53;;;12.23;100.00
9672;BME280;4874;43.568;27.824;2023-05-06T00:03:59;98974.19;;;12.18;100.00
9672;BME280;4874;43.568;27.824;2023-05-06T00:06:26;98983.13;;;12.34;100.00
9672;BME280;4874;43.568;27.824;2023-05-06T00:08:54;98969.56;;;12.20;100.00
9672;BME280;4874;43.568;27.824;2023-05-06T00:11:20;98969.72;;;12.18;100.00
9672;BME280;4874;43.568;27.824;2023-05-06T00:13:47;98964.63;;;11.90;100.00
9672;BME280;4874;43.568;27.824;2023-05-06T00:16:14;98969.28;;;11.88;100.00
9672;BME280;4874;43.568;27.824;2023-05-06T00:18:41;98967.44;;;12.06;100.00
9672;BME280;4874;43.568;27.824;2023-05-06T00:21:07;98967.28;;;12.07;100.00
9672;BME280;4874;43.568;27.824;2023-05-06T00:23:34;98968.75;;;11.84;100.00
9672;BME280;4874;43.568;27.824;2023-05-06T00:26:00;98964.13;;;11.86;100.00
9672;BME280;4874;43.568;27.824;2023-05-06T00:28:27;98967.53;;;11.78;100.00
9672;BME280;4874;43.568;27.824;2023-05-06T00:30:53;98963.34;;;11.76;100.00
9672;BME280;4874;43.568;27.824;2023-05-06T00:33:20;98968.81;;;11.74;100.00
9672;BME280;4874;43.568;27.824;2023-05-06T00:35:47;98970.56;;;11.66;100.00
9672;BME280;4874;43.568;27.824;2023-05-06T00:38:14;98964.34;;;11.75;100.00
9672;BME280;4874;43.568;27.824;2023-05-06T00:40:40;98964.19;;;11.76;100.00
9672;BME280;4874;43.568;27.824;2023-05-06T00:43:07;98960.91;;;11.65;100.00
9672;BME280;4874;43.568;27.824;2023-05-06T00:45:34;98958.03;;;11.49;100.00
9672;BME280;4874;43.568;27.824;2023-05-06T00:48:00;98954.16;;;11.43;100.00
9672;BME280;4874;43.568;27.824;2023-05-06T00:50:27;98960.31;;;11.44;100.00
9672;BME280;4874;43.568;27.824;2023-05-06T00:52:56;98960.03;;;11.20;100.00
9672;BME280;4874;43.568;27.824;2023-05-06T00:55:23;98949.56;;;11.18;100.00
9672;BME280;4874;43.568;27.824;2023-05-06T00:57:51;98957.38;;;11.20;100.00
9672;BME280;4874;43.568;27.824;2023-05-06T01:00:18;98954.88;;;11.18;100.00
9672;BME280;4874;43.568;27.824;2023-05-06T01:02:46;98958.25;;;11.11;100.00
9672;BME280;4874;43.568;27.824;2023-05-06T01:05:14;98953.75;;;11.21;100.00
9672;BME280;4874;43.568;27.824;2023-05-06T01:07:52;98963.44;;;11.39;100.00
9672;BME280;4874;43.568;27.824;2023-05-06T01:10:24;98959.69;;;11.32;100.00
9672;BME280;4874;43.568;27.824;2023-05-06T01:13:13;98953.69;;;11.30;100.00
9672;BME280;4874;43.568;27.824;2023-05-06T01:15:46;98955.66;;;11.28;100.00
9672;BME280;4874;43.568;27.824;2023-05-06T01:18:14;98951.22;;;11.19;100.00
9672;BME280;4874;43.568;27.824;2023-05-06T01:20:46;98950.97;;;11.22;100.00
9672;BME280;4874;43.568;27.824;2023-05-06T01:23:15;98949.78;;;11.07;100.00
9672;BME280;4874;43.568;27.824;2023-05-06T01:25:41;98946.28;;;11.07;100.00
9672;BME280;4874;43.568;27.824;2023-05-06T01:28:08;98943.78;;;11.05;100.00
9672;BME280;4874;43.568;27.824;2023-05-06T01:33:08;98946.72;;;11.02;100.00
9672;BME280;4874;43.568;27.824;2023-05-06T01:35:48;98948.47;;;11.11;100.00
9672;BME280;4874;43.568;27.824;2023-05-06T01:40:46;98943.13;;;11.21;100.00
9672;BME280;4874;43.568;27.824;2023-05-06T01:43:15;98948.78;;;11.08;100.00
9672;BME280;4874;43.568;27.824;2023-05-06T01:45:42;98951.91;;;11.04;100.00
9672;BME280;4874;43.568;27.824;2023-05-06T01:48:14;98945.91;;;11.19;100.00
9672;BME280;4874;43.568;27.824;2023-05-06T01:50:41;98947.31;;;10.96;100.00
9672;BME280;4874;43.568;27.824;2023-05-06T01:53:08;98944.78;;;11.22;100.00
9672;BME280;4874;43.568;27.824;2023-05-06T01:55:35;98948.16;;;10.97;100.00
9672;BME280;4874;43.568;27.824;2023-05-06T01:58:02;98949.44;;;10.93;100.00
9672;BME280;4874;43.568;27.824;2023-05-06T02:00:28;98951.63;;;10.97;100.00
9672;BME280;4874;43.568;27.824;2023-05-06T02:02:55;98948.72;;;11.18;100.00
9672;BME280;4874;43.568;27.824;2023-05-06T02:05:22;98951.78;;;11.23;100.00
9672;BME280;4874;43.568;27.824;2023-05-06T02:07:48;98954.16;;;11.26;100.00
9672;BME280;4874;43.568;27.824;2023-05-06T02:10:15;98951.69;;;11.15;100.00
9672;BME280;4874;43.568;27.824;2023-05-06T02:12:42;98943.47;;;11.08;100.00
9672;BME280;4874;43.568;27.824;2023-05-06T02:15:08;98942.06;;;10.87;100.00
9672;BME280;4874;43.568;27.824;2023-05-06T02:17:36;98943.97;;;10.94;100.00
9672;BME280;4874;43.568;27.824;2023-05-06T02:20:03;98947.78;;;10.82;100.00
9672;BME280;4874;43.568;27.824;2023-05-06T02:22:30;98954.19;;;10.89;100.00
9672;BME280;4874;43.568;27.824;2023-05-06T02:24:56;98948.56;;;10.92;100.00
9672;BME280;4874;43.568;27.824;2023-05-06T02:27:23;98943.63;;;10.80;100.00
9672;BME280;4874;43.568;27.824;2023-05-06T02:29:49;98945.97;;;10.83;100.00
9672;BME280;4874;43.568;27.824;2023-05-06T02:32:16;98949.56;;;10.91;100.00
9672;BME280;4874;43.568;27.824;2023-05-06T02:34:42;98947.50;;;10.85;100.00
9672;BME280;4874;43.568;27.824;2023-05-06T02:37:09;98938.56;;;10.86;100.00
9672;BME280;4874;43.568;27.824;2023-05-06T02:39:36;98945.72;;;10.76;100.00
9672;BME280;4874;43.568;27.824;2023-05-06T02:42:02;98948.78;;;10.81;100.00
9672;BME280;4874;43.568;27.824;2023-05-06T02:44:29;98948.94;;;10.80;100.00
9672;BME280;4874;43.568;27.824;2023-05-06T02:46:56;98952.13;;;10.83;100.00
9672;BME280;4874;43.568;27.824;2023-05-06T02:49:22;98953.63;;;10.95;100.00
9672;BME280;4874;43.568;27.824;2023-05-06T02:51:49;98958.31;;;10.74;100.00
9672;BME280;4874;43.568;27.824;2023-05-06T02:54:16;98955.34;;;10.77;100.00
9672;BME280;4874;43.568;27.824;2023-05-06T02:56:42;98959.28;;;10.73;100.00
9672;BME280;4874;43.568;27.824;2023-05-06T02:59:12;98959.25;;;10.83;100.00
9672;BME280;4874;43.568;27.824;2023-05-06T03:01:38;98964.88;;;10.70;100.00
9672;BME280;4874;43.568;27.824;2023-05-06T03:04:05;98974.38;;;10.73;100.00
9672;BME280;4874;43.568;27.824;2023-05-06T03:06:32;98974.66;;;10.69;100.00
9672;BME280;4874;43.568;27.824;2023-05-06T03:08:59;98979.44;;;10.66;100.00
9672;BME280;4874;43.568;27.824;2023-05-06T03:11:25;98983.31;;;10.72;100.00
9672;BME280;4874;43.568;27.824;2023-05-06T03:13:52;98972.16;;;10.68;100.00
9672;BME280;4874;43.568;27.824;2023-05-06T03:16:18;98978.47;;;10.67;100.00
9672;BME280;4874;43.568;27.824;2023-05-06T03:18:45;98979.41;;;10.76;100.00
9672;BME280;4874;43.568;27.824;2023-05-06T03:21:11;98985.25;;;10.79;100.00
9672;BME280;4874;43.568;27.824;2023-05-06T03:23:38;98986.34;;;10.86;100.00
9672;BME280;4874;43.568;27.824;2023-05-06T03:26:05;98987.09;;;11.06;100.00
9672;BME280;4874;43.568;27.824;2023-05-06T03:28:31;98992.22;;;10.90;100.00
9672;BME280;4874;43.568;27.824;2023-05-06T03:30:58;98993.31;;;10.97;100.00
9672;BME280;4874;43.568;27.824;2023-05-06T03:33:25;98991.53;;;11.15;100.00
9672;BME280;4874;43.568;27.824;2023-05-06T03:35:51;98994.34;;;11.13;100.00
9672;BME280;4874;43.568;27.824;2023-05-06T03:38:18;98996.31;;;11.11;100.00
9672;BME280;4874;43.568;27.824;2023-05-06T03:40:45;98997.69;;;11.15;100.00
9672;BME280;4874;43.568;27.824;2023-05-06T03:43:11;99000.13;;;11.26;100.00
9672;BME280;4874;43.568;27.824;2023-05-06T03:45:38;98999.59;;;11.23;100.00
9672;BME280;4874;43.568;27.824;2023-05-06T03:48:04;99012.22;;;11.48;100.00
9672;BME280;4874;43.568;27.824;2023-05-06T03:50:31;99012.84;;;11.59;100.00
9672;BME280;4874;43.568;27.824;2023-05-06T03:52:58;99004.47;;;11.54;100.00
9672;BME280;4874;43.568;27.824;2023-05-06T03:55:24;99013.78;;;11.41;100.00
9672;BME280;4874;43.568;27.824;2023-05-06T03:57:51;99013.25;;;11.37;100.00
9672;BME280;4874;43.568;27.824;2023-05-06T04:00:18;99011.22;;;11.22;100.00
9672;BME280;4874;43.568;27.824;2023-05-06T04:02:44;99008.56;;;11.49;100.00
9672;BME280;4874;43.568;27.824;2023-05-06T04:05:11;99007.09;;;11.81;100.00
9672;BME280;4874;43.568;27.824;2023-05-06T04:07:38;99008.13;;;11.80;100.00
9672;BME280;4874;43.568;27.824;2023-05-06T04:10:04;99012.28;;;12.36;100.00
9672;BME280;4874;43.568;27.824;2023-05-06T04:12:31;99007.41;;;11.78;100.00
9672;BME280;4874;43.568;27.824;2023-05-06T04:14:58;99017.44;;;11.84;100.00
9672;BME280;4874;43.568;27.824;2023-05-06T04:17:24;99010.47;;;11.83;100.00
9672;BME280;4874;43.568;27.824;2023-05-06T04:19:51;99008.84;;;11.73;100.00
9672;BME280;4874;43.568;27.824;2023-05-06T04:22:19;99012.59;;;11.53;100.00
9672;BME280;4874;43.568;27.824;2023-05-06T04:24:47;99004.09;;;11.22;100.00
9672;BME280;4874;43.568;27.824;2023-05-06T04:27:13;98999.59;;;11.23;100.00
9672;BME280;4874;43.568;27.824;2023-05-06T04:29:40;99010.34;;;11.31;100.00
9672;BME280;4874;43.568;27.824;2023-05-06T04:32:07;99018.59;;;11.28;100.00
9672;BME280;4874;43.568;27.824;2023-05-06T04:34:37;99019.50;;;11.73;100.00
9672;BME280;4874;43.568;27.824;2023-05-06T04:37:03;99007.81;;;11.56;100.00
9672;BME280;4874;43.568;27.824;2023-05-06T04:39:30;99014.88;;;11.75;100.00
9672;BME280;4874;43.568;27.824;2023-05-06T04:41:57;99014.72;;;11.49;100.00
9672;BME280;4874;43.568;27.824;2023-05-06T04:44:24;99009.53;;;11.75;100.00
9672;BME280;4874;43.568;27.824;2023-05-06T04:46:50;99013.19;;;11.92;100.00
9672;BME280;4874;43.568;27.824;2023-05-06T04:49:17;99007.34;;;12.06;100.00
9672;BME280;4874;43.568;27.824;2023-05-06T04:51:43;99008.41;;;12.13;100.00
9672;BME280;4874;43.568;27.824;2023-05-06T04:54:10;99011.88;;;12.31;100.00
9672;BME280;4874;43.568;27.824;2023-05-06T04:56:37;99011.00;;;12.48;100.00
9672;BME280;4874;43.568;27.824;2023-05-06T04:59:03;99018.66;;;12.68;100.00
9672;BME280;4874;43.568;27.824;2023-05-06T05:01:30;99013.13;;;12.87;100.00
9672;BME280;4874;43.568;27.824;2023-05-06T05:03:57;99013.03;;;12.97;100.00
9672;BME280;4874;43.568;27.824;2023-05-06T05:06:23;99018.78;;;13.10;100.00
9672;BME280;4874;43.568;27.824;2023-05-06T05:08:52;99012.50;;;13.19;100.00
9672;BME280;4874;43.568;27.824;2023-05-06T05:11:20;99018.91;;;13.34;100.00
9672;BME280;4874;43.568;27.824;2023-05-06T05:13:47;99017.59;;;13.46;100.00
9672;BME280;4874;43.568;27.824;2023-05-06T05:16:13;99027.66;;;13.60;100.00
9672;BME280;4874;43.568;27.824;2023-05-06T05:18:40;99028.34;;;13.70;100.00
9672;BME280;4874;43.568;27.824;2023-05-06T05:21:06;99028.38;;;13.78;100.00
9672;BME280;4874;43.568;27.824;2023-05-06T05:23:33;99031.72;;;13.88;100.00
9672;BME280;4874;43.568;27.824;2023-05-06T05:26:00;99042.78;;;13.93;100.00
9672;BME280;4874;43.568;27.824;2023-05-06T05:28:26;99036.25;;;14.04;100.00
9672;BME280;4874;43.568;27.824;2023-05-06T05:30:53;99036.47;;;14.10;100.00
9672;BME280;4874;43.568;27.824;2023-05-06T05:33:20;99028.13;;;14.22;100.00
9672;BME280;4874;43.568;27.824;2023-05-06T05:35:46;99038.00;;;14.37;100.00
9672;BME280;4874;43.568;27.824;2023-05-06T05:38:13;99037.00;;;14.54;100.00
9672;BME280;4874;43.568;27.824;2023-05-06T05:40:40;99041.00;;;14.50;100.00
9672;BME280;4874;43.568;27.824;2023-05-06T05:43:07;99040.19;;;14.74;100.00
9672;BME280;4874;43.568;27.824;2023-05-06T05:45:33;99045.44;;;15.14;100.00
9672;BME280;4874;43.568;27.824;2023-05-06T05:48:00;99039.38;;;15.28;100.00
9672;BME280;4874;43.568;27.824;2023-05-06T05:50:27;99043.81;;;15.60;100.00
9672;BME280;4874;43.568;27.824;2023-05-06T05:52:54;99035.63;;;15.84;100.00
9672;BME280;4874;43.568;27.824;2023-05-06T05:55:20;99040.50;;;15.88;100.00
9672;BME280;4874;43.568;27.824;2023-05-06T05:57:47;99040.81;;;16.16;100.00
9672;BME280;4874;43.568;27.824;2023-05-06T06:00:14;99045.41;;;16.30;100.00
9672;BME280;4874;43.568;27.824;2023-05-06T06:02:40;99042.97;;;16.66;100.00
9672;BME280;4874;43.568;27.824;2023-05-06T06:05:07;99039.16;;;16.60;100.00
9672;BME280;4874;43.568;27.824;2023-05-06T06:07:34;99051.13;;;16.72;100.00
9672;BME280;4874;43.568;27.824;2023-05-06T06:10:01;99037.13;;;16.85;100.00
9672;BME280;4874;43.568;27.824;2023-05-06T06:12:27;99038.50;;;16.95;100.00
9672;BME280;4874;43.568;27.824;2023-05-06T06:14:54;99027.31;;;17.06;100.00
9672;BME280;4874;43.568;27.824;2023-05-06T06:17:20;99026.94;;;16.95;100.00
9672;BME280;4874;43.568;27.824;2023-05-06T06:19:47;99032.88;;;17.34;100.00
9672;BME280;4874;43.568;27.824;2023-05-06T06:22:14;99026.88;;;17.17;100.00
9672;BME280;4874;43.568;27.824;2023-05-06T06:24:40;99030.56;;;17.16;100.00
9672;BME280;4874;43.568;27.824;2023-05-06T06:27:07;99034.66;;;17.27;100.00
9672;BME280;4874;43.568;27.824;2023-05-06T06:29:33;99035.03;;;17.53;100.00
9672;BME280;4874;43.568;27.824;2023-05-06T06:32:01;99045.75;;;17.68;100.00
9672;BME280;4874;43.568;27.824;2023-05-06T06:34:28;99040.00;;;17.71;100.00
9672;BME280;4874;43.568;27.824;2023-05-06T06:36:55;99040.34;;;18.18;100.00
9672;BME280;4874;43.568;27.824;2023-05-06T06:39:21;99036.97;;;18.09;100.00
9672;BME280;4874;43.568;27.824;2023-05-06T06:41:48;99038.69;;;17.81;100.00
9672;BME280;4874;43.568;27.824;2023-05-06T06:44:14;99039.31;;;17.98;100.00
9672;BME280;4874;43.568;27.824;2023-05-06T06:46:41;99047.34;;;18.33;100.00
9672;BME280;4874;43.568;27.824;2023-05-06T06:49:08;99048.34;;;18.68;100.00
9672;BME280;4874;43.568;27.824;2023-05-06T06:51:34;99043.16;;;18.66;100.00
9672;BME280;4874;43.568;27.824;2023-05-06T06:54:01;99053.19;;;19.07;100.00
9672;BME280;4874;43.568;27.824;2023-05-06T06:56:27;99058.34;;;18.81;100.00
9672;BME280;4874;43.568;27.824;2023-05-06T06:58:54;99054.28;;;18.63;100.00
9672;BME280;4874;43.568;27.824;2023-05-06T07:01:21;99055.69;;;19.08;100.00
9672;BME280;4874;43.568;27.824;2023-05-06T07:03:47;99056.31;;;19.31;100.00
9672;BME280;4874;43.568;27.824;2023-05-06T07:06:14;99058.22;;;19.44;100.00
9672;BME280;4874;43.568;27.824;2023-05-06T07:08:41;99063.63;;;19.16;100.00
9672;BME280;4874;43.568;27.824;2023-05-06T07:11:07;99060.94;;;18.89;100.00
9672;BME280;4874;43.568;27.824;2023-05-06T07:13:34;99065.22;;;18.83;100.00
9672;BME280;4874;43.568;27.824;2023-05-06T07:16:00;99062.22;;;19.27;100.00
9672;BME280;4874;43.568;27.824;2023-05-06T07:18:27;99055.19;;;19.26;100.00
9672;BME280;4874;43.568;27.824;2023-05-06T07:20:54;99067.94;;;19.79;100.00
9672;BME280;4874;43.568;27.824;2023-05-06T07:23:20;99077.56;;;19.54;100.00
9672;BME280;4874;43.568;27.824;2023-05-06T07:25:47;99071.97;;;19.55;100.00
9672;BME280;4874;43.568;27.824;2023-05-06T07:28:14;99086.28;;;20.03;100.00
9672;BME280;4874;43.568;27.824;2023-05-06T07:30:41;99076.25;;;19.84;100.00
9672;BME280;4874;43.568;27.824;2023-05-06T07:33:07;99081.41;;;19.72;100.00
9672;BME280;4874;43.568;27.824;2023-05-06T07:35:35;99075.50;;;20.03;100.00
9672;BME280;4874;43.568;27.824;2023-05-06T07:38:01;99075.28;;;19.98;100.00
9672;BME280;4874;43.568;27.824;2023-05-06T07:40:28;99074.41;;;20.38;100.00
9672;BME280;4874;43.568;27.824;2023-05-06T07:42:55;99077.50;;;20.35;100.00
9672;BME280;4874;43.568;27.824;2023-05-06T07:45:21;99079.38;;;20.35;100.00
9672;BME280;4874;43.568;27.824;2023-05-06T07:47:49;99073.13;;;20.28;100.00
9672;BME280;4874;43.568;27.824;2023-05-06T07:50:16;99074.03;;;20.61;100.00
9672;BME280;4874;43.568;27.824;2023-05-06T07:52:43;99081.47;;;20.39;100.00
9672;BME280;4874;43.568;27.824;2023-05-06T07:55:09;99077.16;;;20.77;100.00
9672;BME280;4874;43.568;27.824;2023-05-06T07:57:36;99086.25;;;20.50;100.00
9672;BME280;4874;43.568;27.824;2023-05-06T08:00:03;99072.81;;;20.63;100.00
9672;BME280;4874;43.568;27.824;2023-05-06T08:02:29;99083.59;;;20.57;100.00
9672;BME280;4874;43.568;27.824;2023-05-06T08:04:57;99080.50;;;20.92;100.00
9672;BME280;4874;43.568;27.824;2023-05-06T08:07:24;99086.47;;;20.49;100.00
9672;BME280;4874;43.568;27.824;2023-05-06T08:09:50;99091.31;;;21.06;100.00
9672;BME280;4874;43.568;27.824;2023-05-06T08:12:17;99084.84;;;20.80;100.00
9672;BME280;4874;43.568;27.824;2023-05-06T08:14:43;99091.31;;;21.32;100.00
9672;BME280;4874;43.568;27.824;2023-05-06T08:17:11;99096.06;;;20.97;100.00
9672;BME280;4874;43.568;27.824;2023-05-06T08:19:38;99095.22;;;20.90;100.00
9672;BME280;4874;43.568;27.824;2023-05-06T08:22:04;99101.44;;;20.77;100.00
9672;BME280;4874;43.568;27.824;2023-05-06T08:24:31;99105.88;;;21.05;100.00
9672;BME280;4874;43.568;27.824;2023-05-06T08:26:57;99112.22;;;20.77;100.00
9672;BME280;4874;43.568;27.824;2023-05-06T08:29:24;99105.00;;;20.97;100.00
9672;BME280;4874;43.568;27.824;2023-05-06T08:31:51;99118.28;;;20.92;100.00
9672;BME280;4874;43.568;27.824;2023-05-06T08:34:17;99111.47;;;21.16;100.00
9672;BME280;4874;43.568;27.824;2023-05-06T08:36:47;99112.50;;;21.09;100.00
9672;BME280;4874;43.568;27.824;2023-05-06T08:39:13;99113.53;;;21.27;100.00
9672;BME280;4874;43.568;27.824;2023-05-06T08:41:40;99122.00;;;20.91;100.00
9672;BME280;4874;43.568;27.824;2023-05-06T08:44:11;99106.19;;;20.62;100.00
9672;BME280;4874;43.568;27.824;2023-05-06T08:46:40;99112.91;;;20.86;100.00
9672;BME280;4874;43.568;27.824;2023-05-06T08:49:06;99113.56;;;21.08;100.00
9672;BME280;4874;43.568;27.824;2023-05-06T08:51:33;99120.41;;;21.17;100.00
9672;BME280;4874;43.568;27.824;2023-05-06T08:54:00;99113.97;;;21.05;100.00
9672;BME280;4874;43.568;27.824;2023-05-06T08:56:31;99123.69;;;21.45;100.00
9672;BME280;4874;43.568;27.824;2023-05-06T08:58:58;99119.72;;;21.80;100.00
9672;BME280;4874;43.568;27.824;2023-05-06T09:01:25;99116.59;;;21.83;100.00
9672;BME280;4874;43.568;27.824;2023-05-06T09:03:54;99129.75;;;21.40;100.00
9672;BME280;4874;43.568;27.824;2023-05-06T09:06:21;99126.00;;;21.09;100.00
9672;BME280;4874;43.568;27.824;2023-05-06T09:08:48;99121.22;;;21.11;100.00
9672;BME280;4874;43.568;27.824;2023-05-06T09:11:19;99120.38;;;21.10;100.00
9672;BME280;4874;43.568;27.824;2023-05-06T09:13:46;99121.81;;;21.65;100.00
9672;BME280;4874;43.568;27.824;2023-05-06T09:16:28;99126.44;;;21.25;100.00
9672;BME280;4874;43.568;27.824;2023-05-06T09:18:55;99106.91;;;22.20;100.00
9672;BME280;4874;43.568;27.824;2023-05-06T09:21:28;99107.63;;;22.40;100.00
9672;BME280;4874;43.568;27.824;2023-05-06T09:23:54;99118.06;;;22.36;100.00
9672;BME280;4874;43.568;27.824;2023-05-06T09:26:21;99112.84;;;21.77;100.00
9672;BME280;4874;43.568;27.824;2023-05-06T09:28:48;99098.06;;;21.86;100.00
9672;BME280;4874;43.568;27.824;2023-05-06T09:31:16;99087.75;;;22.21;100.00
9672;BME280;4874;43.568;27.824;2023-05-06T09:33:42;99100.59;;;21.81;100.00
9672;BME280;4874;43.568;27.824;2023-05-06T09:36:09;99101.69;;;22.18;100.00
9672;BME280;4874;43.568;27.824;2023-05-06T09:38:41;99104.94;;;21.76;100.00
9672;BME280;4874;43.568;27.824;2023-05-06T09:41:08;99101.03;;;21.59;100.00
9672;BME280;4874;43.568;27.824;2023-05-06T09:43:34;99102.22;;;21.95;100.00
9672;BME280;4874;43.568;27.824;2023-05-06T09:46:07;99093.34;;;22.26;100.00
9672;BME280;4874;43.568;27.824;2023-05-06T09:48:34;99090.47;;;22.59;100.00
9672;BME280;4874;43.568;27.824;2023-05-06T09:51:01;99090.28;;;22.09;100.00
9672;BME280;4874;43.568;27.824;2023-05-06T09:53:28;99089.31;;;21.91;100.00
9672;BME280;4874;43.568;27.824;2023-05-06T09:55:56;99091.38;;;22.02;100.00
9672;BME280;4874;43.568;27.824;2023-05-06T09:58:23;99090.47;;;22.21;99.78
9672;BME280;4874;43.568;27.824;2023-05-06T10:00:51;99093.19;;;22.52;98.12
9672;BME280;4874;43.568;27.824;2023-05-06T10:03:18;99101.97;;;23.10;96.97
9672;BME280;4874;43.568;27.824;2023-05-06T10:05:45;99098.91;;;23.24;97.83
9672;BME280;4874;43.568;27.824;2023-05-06T10:08:12;99101.69;;;22.93;97.05
9672;BME280;4874;43.568;27.824;2023-05-06T10:10:44;99098.94;;;22.69;96.79
9672;BME280;4874;43.568;27.824;2023-05-06T10:13:12;99097.09;;;22.69;96.77
9672;BME280;4874;43.568;27.824;2023-05-06T10:15:38;99095.22;;;22.63;95.99
9672;BME280;4874;43.568;27.824;2023-05-06T10:18:06;99096.84;;;22.33;95.59
9672;BME280;4874;43.568;27.824;2023-05-06T10:20:34;99086.19;;;22.38;92.28
9672;BME280;4874;43.568;27.824;2023-05-06T10:25:40;99092.22;;;22.78;87.53
9672;BME280;4874;43.568;27.824;2023-05-06T10:28:11;99099.34;;;22.35;84.60
9672;BME280;4874;43.568;27.824;2023-05-06T10:30:38;99103.63;;;22.42;86.46
9672;BME280;4874;43.568;27.824;2023-05-06T10:33:06;99095.28;;;22.88;85.49
9672;BME280;4874;43.568;27.824;2023-05-06T10:38:28;99092.16;;;23.09;82.74
9672;BME280;4874;43.568;27.824;2023-05-06T10:40:53;99089.59;;;23.45;79.06
9672;BME280;4874;43.568;27.824;2023-05-06T10:43:24;99101.72;;;22.87;78.37
9672;BME280;4874;43.568;27.824;2023-05-06T10:45:58;99095.69;;;22.47;79.53
9672;BME280;4874;43.568;27.824;2023-05-06T10:48:26;99097.66;;;23.02;80.50
9672;BME280;4874;43.568;27.824;2023-05-06T10:53:54;99101.63;;;23.24;79.44
9672;BME280;4874;43.568;27.824;2023-05-06T10:56:20;99094.19;;;22.64;83.21
9672;BME280;4874;43.568;27.824;2023-05-06T10:58:47;99097.66;;;22.71;83.74
9672;BME280;4874;43.568;27.824;2023-05-06T11:01:14;99084.75;;;22.73;85.03
9672;BME280;4874;43.568;27.824;2023-05-06T11:03:41;99087.06;;;22.70;84.17
9672;BME280;4874;43.568;27.824;2023-05-06T11:06:08;99087.94;;;22.64;86.87
9672;BME280;4874;43.568;27.824;2023-05-06T11:08:35;99088.25;;;22.80;88.04
9672;BME280;4874;43.568;27.824;2023-05-06T11:11:44;99083.00;;;22.85;87.32
9672;BME280;4874;43.568;27.824;2023-05-06T11:13:51;99092.13;;;22.91;88.90
9672;BME280;4874;43.568;27.824;2023-05-06T11:19:23;99080.56;;;22.40;88.55
9672;BME280;4874;43.568;27.824;2023-05-06T11:21:51;99075.19;;;21.95;90.17
9672;BME280;4874;43.568;27.824;2023-05-06T11:24:21;99082.97;;;22.16;90.27
9672;BME280;4874;43.568;27.824;2023-05-06T11:26:48;99103.00;;;22.47;86.11
9672;BME280;4874;43.568;27.824;2023-05-06T11:29:15;99089.09;;;22.43;83.78
9672;BME280;4874;43.568;27.824;2023-05-06T11:31:42;99086.25;;;22.32;86.69
9672;BME280;4874;43.568;27.824;2023-05-06T11:34:11;99085.16;;;22.39;87.92
9672;BME280;4874;43.568;27.824;2023-05-06T11:36:44;99082.88;;;22.36;89.10
9672;BME280;4874;43.568;27.824;2023-05-06T11:39:11;99077.03;;;21.95;90.84
9672;BME280;4874;43.568;27.824;2023-05-06T11:41:38;99074.47;;;22.13;90.69
9672;BME280;4874;43.568;27.824;2023-05-06T11:44:06;99081.69;;;22.26;90.09
9672;BME280;4874;43.568;27.824;2023-05-06T11:46:34;99072.88;;;21.99;88.45
9672;BME280;4874;43.568;27.824;2023-05-06T11:49:01;99081.47;;;22.65;87.38
9672;BME280;4874;43.568;27.824;2023-05-06T11:51:28;99087.22;;;22.44;86.60
9672;BME280;4874;43.568;27.824;2023-05-06T11:54:12;99077.44;;;21.98;88.31
9672;BME280;4874;43.568;27.824;2023-05-06T11:56:46;99091.63;;;22.38;87.09
9672;BME280;4874;43.568;27.824;2023-05-06T11:59:13;99075.78;;;22.35;88.18
9672;BME280;4874;43.568;27.824;2023-05-06T12:01:41;99080.66;;;22.20;89.71
9672;BME280;4874;43.568;27.824;2023-05-06T12:04:08;99074.88;;;22.10;89.68
9672;BME280;4874;43.568;27.824;2023-05-06T12:09:05;99084.78;;;22.29;90.58
9672;BME280;4874;43.568;27.824;2023-05-06T12:11:33;99075.91;;;22.15;91.31
9672;BME280;4874;43.568;27.824;2023-05-06T12:14:01;99092.13;;;22.15;89.99
9672;BME280;4874;43.568;27.824;2023-05-06T12:16:28;99084.72;;;21.98;90.19
9672;BME280;4874;43.568;27.824;2023-05-06T12:18:54;99076.03;;;21.76;92.83
9672;BME280;4874;43.568;27.824;2023-05-06T12:21:24;99076.59;;;21.98;92.06
9672;BME280;4874;43.568;27.824;2023-05-06T12:23:58;99092.69;;;21.67;92.91
9672;BME280;4874;43.568;27.824;2023-05-06T12:26:25;99078.88;;;22.01;90.39
9672;BME280;4874;43.568;27.824;2023-05-06T12:29:06;99081.50;;;21.50;92.45
9672;BME280;4874;43.568;27.824;2023-05-06T12:31:33;99083.63;;;22.12;92.05
9672;BME280;4874;43.568;27.824;2023-05-06T12:34:00;99088.97;;;21.55;94.11
9672;BME280;4874;43.568;27.824;2023-05-06T12:36:26;99081.94;;;21.47;94.54
9672;BME280;4874;43.568;27.824;2023-05-06T12:38:57;99094.03;;;20.99;97.02
9672;BME280;4874;43.568;27.824;2023-05-06T12:41:26;99076.16;;;21.37;96.22
9672;BME280;4874;43.568;27.824;2023-05-06T12:44:00;99079.25;;;21.47;94.28
9672;BME280;4874;43.568;27.824;2023-05-06T12:46:27;99085.22;;;21.82;93.02
9672;BME280;4874;43.568;27.824;2023-05-06T12:48:57;99086.91;;;21.50;92.78
9672;BME280;4874;43.568;27.824;2023-05-06T12:51:24;99086.00;;;21.76;94.07
9672;BME280;4874;43.568;27.824;2023-05-06T12:53:52;99074.59;;;21.87;94.28
9672;BME280;4874;43.568;27.824;2023-05-06T12:56:19;99074.94;;;22.03;94.28
9672;BME280;4874;43.568;27.824;2023-05-06T12:58:59;99087.28;;;21.80;91.83
9672;BME280;4874;43.568;27.824;2023-05-06T13:01:26;99079.91;;;22.06;93.05
9672;BME280;4874;43.568;27.824;2023-05-06T13:03:54;99075.22;;;21.69;95.17
9672;BME280;4874;43.568;27.824;2023-05-06T13:06:21;99083.09;;;21.84;95.79
9672;BME280;4874;43.568;27.824;2023-05-06T13:08:48;99080.03;;;21.48;96.95
9672;BME280;4874;43.568;27.824;2023-05-06T13:11:14;99080.22;;;21.66;96.32
9672;BME280;4874;43.568;27.824;2023-05-06T13:13:41;99080.28;;;21.40;96.52
9672;BME280;4874;43.568;27.824;2023-05-06T13:16:07;99091.47;;;21.56;96.89
9672;BME280;4874;43.568;27.824;2023-05-06T13:18:35;99083.84;;;21.08;96.75
9672;BME280;4874;43.568;27.824;2023-05-06T13:21:01;99075.53;;;21.09;99.61
9672;BME280;4874;43.568;27.824;2023-05-06T13:23:29;99092.75;;;21.01;98.81